sensor_id;sensor_type;location;lat;lon;timestamp;temperature;humidity
61841;DHT22;47773;53.174;6.614;2022-07-22T00:00:59;17.10;99.90
61841;DHT22;47773;53.174;6.614;2022-07-22T00:03:25;17.10;99.90
61841;DHT22;47773;53.174;6.614;2022-07-22T00:05:50;17.10;99.90
61841;DHT22;47773;53.174;6.614;2022-07-22T00:08:16;17.10;99.90
61841;DHT22;47773;53.174;6.614;2022-07-22T00:10:42;17.20;99.90
61841;DHT22;47773;53.174;6.614;2022-07-22T00:13:08;17.20;99.90
61841;DHT22;47773;53.174;6.614;2022-07-22T00:15:33;17.20;99.90
61841;DHT22;47773;53.174;6.614;2022-07-22T00:17:59;17.20;99.90
61841;DHT22;47773;53.174;6.614;2022-07-22T00:20:25;17.20;99.90
61841;DHT22;47773;53.174;6.614;2022-07-22T00:22:50;17.20;99.90
61841;DHT22;47773;53.174;6.614;2022-07-22T00:25:16;17.20;99.90
61841;DHT22;47773;53.174;6.614;2022-07-22T00:27:42;17.20;99.90
61841;DHT22;47773;53.174;6.614;2022-07-22T00:30:08;17.20;99.90
61841;DHT22;47773;53.174;6.614;2022-07-22T00:32:34;17.20;99.90
61841;DHT22;47773;53.174;6.614;2022-07-22T00:35:00;17.20;99.90
61841;DHT22;47773;53.174;6.614;2022-07-22T00:37:26;17.20;99.90
61841;DHT22;47773;53.174;6.614;2022-07-22T00:39:51;17.20;99.90
61841;DHT22;47773;53.174;6.614;2022-07-22T00:42:17;17.20;99.90
61841;DHT22;47773;53.174;6.614;2022-07-22T00:44:43;17.10;99.90
61841;DHT22;47773;53.174;6.614;2022-07-22T00:47:10;17.10;99.90
61841;DHT22;47773;53.174;6.614;2022-07-22T00:49:35;17.20;99.90
61841;DHT22;47773;53.174;6.614;2022-07-22T00:52:01;17.10;99.90
61841;DHT22;47773;53.174;6.614;2022-07-22T00:54:27;17.10;99.90
61841;DHT22;47773;53.174;6.614;2022-07-22T00:56:53;17.10;99.90
61841;DHT22;47773;53.174;6.614;2022-07-22T00:59:19;17.10;99.90
61841;DHT22;47773;53.174;6.614;2022-07-22T01:01:44;17.10;99.90
61841;DHT22;47773;53.174;6.614;2022-07-22T01:04:10;17.10;99.90
61841;DHT22;47773;53.174;6.614;2022-07-22T01:06:36;17.10;99.90
61841;DHT22;47773;53.174;6.614;2022-07-22T01:09:02;17.10;99.90
61841;DHT22;47773;53.174;6.614;2022-07-22T01:11:28;17.10;99.90
61841;DHT22;47773;53.174;6.614;2022-07-22T01:13:55;17.10;99.90
61841;DHT22;47773;53.174;6.614;2022-07-22T01:16:21;17.10;99.90
61841;DHT22;47773;53.174;6.614;2022-07-22T01:18:47;17.10;99.90
61841;DHT22;47773;53.174;6.614;2022-07-22T01:21:14;17.10;99.90
61841;DHT22;47773;53.174;6.614;2022-07-22T01:23:40;17.10;99.90
61841;DHT22;47773;53.174;6.614;2022-07-22T01:26:06;17.10;99.90
61841;DHT22;47773;53.174;6.614;2022-07-22T01:28:32;17.10;99.90
61841;DHT22;47773;53.174;6.614;2022-07-22T01:30:58;17.00;99.90
61841;DHT22;47773;53.174;6.614;2022-07-22T01:33:24;17.00;99.90
61841;DHT22;47773;53.174;6.614;2022-07-22T01:35:51;17.10;99.90
61841;DHT22;47773;53.174;6.614;2022-07-22T01:38:17;17.10;99.90
61841;DHT22;47773;53.174;6.614;2022-07-22T01:40:44;17.10;99.90
61841;DHT22;47773;53.174;6.614;2022-07-22T01:43:10;17.00;99.90
61841;DHT22;47773;53.174;6.614;2022-07-22T01:45:36;17.00;99.90
61841;DHT22;47773;53.174;6.614;2022-07-22T01:48:02;17.00;99.90
61841;DHT22;47773;53.174;6.614;2022-07-22T01:50:28;16.90;99.90
61841;DHT22;47773;53.174;6.614;2022-07-22T01:52:53;17.00;99.90
61841;DHT22;47773;53.174;6.614;2022-07-22T01:55:19;17.00;99.90
61841;DHT22;47773;53.174;6.614;2022-07-22T01:57:45;17.00;99.90
61841;DHT22;47773;53.174;6.614;2022-07-22T02:00:11;17.00;99.90
61841;DHT22;47773;53.174;6.614;2022-07-22T02:02:37;17.00;99.90
61841;DHT22;47773;53.174;6.614;2022-07-22T02:05:04;17.00;99.90
61841;DHT22;47773;53.174;6.614;2022-07-22T02:07:30;17.00;99.90
61841;DHT22;47773;53.174;6.614;2022-07-22T02:09:56;17.00;99.90
61841;DHT22;47773;53.174;6.614;2022-07-22T02:12:21;16.90;99.90
61841;DHT22;47773;53.174;6.614;2022-07-22T02:14:47;16.90;99.90
61841;DHT22;47773;53.174;6.614;2022-07-22T02:17:13;16.90;99.90
61841;DHT22;47773;53.174;6.614;2022-07-22T02:19:39;16.90;99.90
61841;DHT22;47773;53.174;6.614;2022-07-22T02:22:06;16.90;99.90
61841;DHT22;47773;53.174;6.614;2022-07-22T02:24:31;16.90;99.90
61841;DHT22;47773;53.174;6.614;2022-07-22T02:26:57;16.90;99.90
61841;DHT22;47773;53.174;6.614;2022-07-22T02:29:23;16.90;99.90
61841;DHT22;47773;53.174;6.614;2022-07-22T02:31:49;16.90;99.90
61841;DHT22;47773;53.174;6.614;2022-07-22T02:34:14;16.90;99.90
61841;DHT22;47773;53.174;6.614;2022-07-22T02:36:40;16.90;99.90
61841;DHT22;47773;53.174;6.614;2022-07-22T02:39:06;16.90;99.90
61841;DHT22;47773;53.174;6.614;2022-07-22T02:41:32;16.90;99.90
61841;DHT22;47773;53.174;6.614;2022-07-22T02:43:58;16.90;99.90
61841;DHT22;47773;53.174;6.614;2022-07-22T02:46:25;16.90;99.90
61841;DHT22;47773;53.174;6.614;2022-07-22T02:48:51;16.90;99.90
61841;DHT22;47773;53.174;6.614;2022-07-22T02:51:16;16.90;99.90
61841;DHT22;47773;53.174;6.614;2022-07-22T02:53:42;16.90;99.90
61841;DHT22;47773;53.174;6.614;2022-07-22T02:56:08;17.00;99.90
61841;DHT22;47773;53.174;6.614;2022-07-22T02:58:33;17.00;99.90
61841;DHT22;47773;53.174;6.614;2022-07-22T03:00:59;16.90;99.90
61841;DHT22;47773;53.174;6.614;2022-07-22T03:03:25;16.90;99.90
61841;DHT22;47773;53.174;6.614;2022-07-22T03:05:51;16.90;99.90
61841;DHT22;47773;53.174;6.614;2022-07-22T03:08:16;16.80;99.90
61841;DHT22;47773;53.174;6.614;2022-07-22T03:10:42;16.80;99.90
61841;DHT22;47773;53.174;6.614;2022-07-22T03:13:08;16.80;99.90
61841;DHT22;47773;53.174;6.614;2022-07-22T03:15:33;16.80;99.90
61841;DHT22;47773;53.174;6.614;2022-07-22T03:17:59;16.80;99.90
61841;DHT22;47773;53.174;6.614;2022-07-22T03:20:24;16.90;99.90
61841;DHT22;47773;53.174;6.614;2022-07-22T03:22:50;16.90;99.90
61841;DHT22;47773;53.174;6.614;2022-07-22T03:25:16;16.90;99.90
61841;DHT22;47773;53.174;6.614;2022-07-22T03:27:42;16.90;99.90
61841;DHT22;47773;53.174;6.614;2022-07-22T03:30:07;16.90;99.90
61841;DHT22;47773;53.174;6.614;2022-07-22T03:32:33;16.90;99.90
61841;DHT22;47773;53.174;6.614;2022-07-22T03:34:59;16.90;99.90
61841;DHT22;47773;53.174;6.614;2022-07-22T03:37:25;16.80;99.90
61841;DHT22;47773;53.174;6.614;2022-07-22T03:39:50;16.90;99.90
61841;DHT22;47773;53.174;6.614;2022-07-22T03:42:16;16.80;99.90
61841;DHT22;47773;53.174;6.614;2022-07-22T03:44:41;16.80;99.90
61841;DHT22;47773;53.174;6.614;2022-07-22T03:47:07;16.80;99.90
61841;DHT22;47773;53.174;6.614;2022-07-22T03:49:33;16.80;99.90
61841;DHT22;47773;53.174;6.614;2022-07-22T03:51:58;16.80;99.90
61841;DHT22;47773;53.174;6.614;2022-07-22T03:54:24;16.80;99.90
61841;DHT22;47773;53.174;6.614;2022-07-22T03:56:49;16.80;99.90
61841;DHT22;47773;53.174;6.614;2022-07-22T03:59:16;16.80;99.90
61841;DHT22;47773;53.174;6.614;2022-07-22T04:04:08;16.80;99.90
61841;DHT22;47773;53.174;6.614;2022-07-22T04:06:34;16.70;99.90
61841;DHT22;47773;53.174;6.614;2022-07-22T04:08:59;16.70;99.90
61841;DHT22;47773;53.174;6.614;2022-07-22T04:11:25;16.80;99.90
61841;DHT22;47773;53.174;6.614;2022-07-22T04:13:51;16.80;99.90
61841;DHT22;47773;53.174;6.614;2022-07-22T04:16:17;16.80;99.90
61841;DHT22;47773;53.174;6.614;2022-07-22T04:18:43;16.80;99.90
61841;DHT22;47773;53.174;6.614;2022-07-22T04:21:09;16.80;99.90
61841;DHT22;47773;53.174;6.614;2022-07-22T04:23:35;16.70;99.90
61841;DHT22;47773;53.174;6.614;2022-07-22T04:26:01;16.70;99.90
61841;DHT22;47773;53.174;6.614;2022-07-22T04:28:26;16.70;99.90
61841;DHT22;47773;53.174;6.614;2022-07-22T04:30:52;16.70;99.90
61841;DHT22;47773;53.174;6.614;2022-07-22T04:33:18;16.70;99.90
61841;DHT22;47773;53.174;6.614;2022-07-22T04:35:43;16.70;99.90
61841;DHT22;47773;53.174;6.614;2022-07-22T04:38:09;16.70;99.90
61841;DHT22;47773;53.174;6.614;2022-07-22T04:40:35;16.70;99.90
61841;DHT22;47773;53.174;6.614;2022-07-22T04:43:01;16.70;99.90
61841;DHT22;47773;53.174;6.614;2022-07-22T04:45:26;16.70;99.90
61841;DHT22;47773;53.174;6.614;2022-07-22T04:47:52;16.70;99.90
61841;DHT22;47773;53.174;6.614;2022-07-22T04:50:18;16.70;99.90
61841;DHT22;47773;53.174;6.614;2022-07-22T04:52:44;16.80;99.90
61841;DHT22;47773;53.174;6.614;2022-07-22T04:55:09;16.70;99.90
61841;DHT22;47773;53.174;6.614;2022-07-22T04:57:35;16.70;99.90
61841;DHT22;47773;53.174;6.614;2022-07-22T05:00:01;16.70;99.90
61841;DHT22;47773;53.174;6.614;2022-07-22T05:02:27;16.70;99.90
61841;DHT22;47773;53.174;6.614;2022-07-22T05:04:53;16.80;99.90
61841;DHT22;47773;53.174;6.614;2022-07-22T05:07:18;16.80;99.90
61841;DHT22;47773;53.174;6.614;2022-07-22T05:09:44;16.80;99.90
61841;DHT22;47773;53.174;6.614;2022-07-22T05:12:09;16.80;99.90
61841;DHT22;47773;53.174;6.614;2022-07-22T05:14:35;16.80;99.90
61841;DHT22;47773;53.174;6.614;2022-07-22T05:17:01;16.80;99.90
61841;DHT22;47773;53.174;6.614;2022-07-22T05:19:26;16.80;99.90
61841;DHT22;47773;53.174;6.614;2022-07-22T05:21:52;16.90;99.90
61841;DHT22;47773;53.174;6.614;2022-07-22T05:24:17;16.90;99.90
61841;DHT22;47773;53.174;6.614;2022-07-22T05:26:43;16.90;99.90
61841;DHT22;47773;53.174;6.614;2022-07-22T05:29:09;16.90;99.90
61841;DHT22;47773;53.174;6.614;2022-07-22T05:31:34;16.90;99.90
61841;DHT22;47773;53.174;6.614;2022-07-22T05:36:26;17.20;99.90
61841;DHT22;47773;53.174;6.614;2022-07-22T05:38:52;17.10;99.90
61841;DHT22;47773;53.174;6.614;2022-07-22T05:41:17;17.10;99.90
61841;DHT22;47773;53.174;6.614;2022-07-22T05:43:43;17.00;99.90
61841;DHT22;47773;53.174;6.614;2022-07-22T05:46:09;17.00;99.90
61841;DHT22;47773;53.174;6.614;2022-07-22T05:48:35;17.00;99.90
61841;DHT22;47773;53.174;6.614;2022-07-22T05:51:01;17.10;99.90
61841;DHT22;47773;53.174;6.614;2022-07-22T05:53:26;17.10;99.90
61841;DHT22;47773;53.174;6.614;2022-07-22T05:55:52;17.10;99.90
61841;DHT22;47773;53.174;6.614;2022-07-22T05:58:18;17.10;99.90
61841;DHT22;47773;53.174;6.614;2022-07-22T06:00:43;17.10;99.90
61841;DHT22;47773;53.174;6.614;2022-07-22T06:05:35;17.20;99.90
61841;DHT22;47773;53.174;6.614;2022-07-22T06:08:02;17.20;99.90
61841;DHT22;47773;53.174;6.614;2022-07-22T06:10:28;17.20;99.90
61841;DHT22;47773;53.174;6.614;2022-07-22T06:12:53;17.20;99.90
61841;DHT22;47773;53.174;6.614;2022-07-22T06:15:19;17.20;99.90
61841;DHT22;47773;53.174;6.614;2022-07-22T06:17:44;17.20;99.90
61841;DHT22;47773;53.174;6.614;2022-07-22T06:20:10;17.20;99.90
61841;DHT22;47773;53.174;6.614;2022-07-22T06:22:36;17.20;99.90
61841;DHT22;47773;53.174;6.614;2022-07-22T06:25:04;17.20;99.90
61841;DHT22;47773;53.174;6.614;2022-07-22T06:27:31;17.20;99.90
61841;DHT22;47773;53.174;6.614;2022-07-22T06:29:56;17.30;99.90
61841;DHT22;47773;53.174;6.614;2022-07-22T06:32:22;17.30;99.90
61841;DHT22;47773;53.174;6.614;2022-07-22T06:34:47;17.40;99.90
61841;DHT22;47773;53.174;6.614;2022-07-22T06:37:13;17.30;99.90
61841;DHT22;47773;53.174;6.614;2022-07-22T06:39:39;17.40;99.90
61841;DHT22;47773;53.174;6.614;2022-07-22T06:42:04;17.40;99.90
61841;DHT22;47773;53.174;6.614;2022-07-22T06:44:30;17.40;99.90
61841;DHT22;47773;53.174;6.614;2022-07-22T06:46:56;17.50;99.90
61841;DHT22;47773;53.174;6.614;2022-07-22T06:49:21;17.50;99.90
61841;DHT22;47773;53.174;6.614;2022-07-22T06:51:47;17.50;99.90
61841;DHT22;47773;53.174;6.614;2022-07-22T06:54:12;17.60;99.90
61841;DHT22;47773;53.174;6.614;2022-07-22T06:56:38;17.60;99.90
61841;DHT22;47773;53.174;6.614;2022-07-22T06:59:04;17.60;99.90
61841;DHT22;47773;53.174;6.614;2022-07-22T07:01:29;17.60;99.90
61841;DHT22;47773;53.174;6.614;2022-07-22T07:03:55;17.70;99.90
61841;DHT22;47773;53.174;6.614;2022-07-22T07:06:20;17.80;99.90
61841;DHT22;47773;53.174;6.614;2022-07-22T07:08:46;17.80;99.90
61841;DHT22;47773;53.174;6.614;2022-07-22T07:11:12;17.80;99.90
61841;DHT22;47773;53.174;6.614;2022-07-22T07:13:37;17.90;99.90
61841;DHT22;47773;53.174;6.614;2022-07-22T07:16:03;17.90;99.90
61841;DHT22;47773;53.174;6.614;2022-07-22T07:18:29;17.90;99.90
61841;DHT22;47773;53.174;6.614;2022-07-22T07:20:54;17.90;99.90
61841;DHT22;47773;53.174;6.614;2022-07-22T07:23:21;18.00;99.90
61841;DHT22;47773;53.174;6.614;2022-07-22T07:25:46;17.90;99.90
61841;DHT22;47773;53.174;6.614;2022-07-22T07:28:12;17.90;99.90
61841;DHT22;47773;53.174;6.614;2022-07-22T07:30:37;18.00;99.90
61841;DHT22;47773;53.174;6.614;2022-07-22T07:33:03;17.90;99.90
61841;DHT22;47773;53.174;6.614;2022-07-22T07:35:29;17.90;99.90
61841;DHT22;47773;53.174;6.614;2022-07-22T07:37:55;17.90;99.90
61841;DHT22;47773;53.174;6.614;2022-07-22T07:40:20;17.90;99.90
61841;DHT22;47773;53.174;6.614;2022-07-22T07:42:46;17.90;99.90
61841;DHT22;47773;53.174;6.614;2022-07-22T07:45:12;17.90;99.90
61841;DHT22;47773;53.174;6.614;2022-07-22T07:47:38;17.90;99.90
61841;DHT22;47773;53.174;6.614;2022-07-22T07:50:05;18.00;99.90
61841;DHT22;47773;53.174;6.614;2022-07-22T07:52:40;18.00;99.90
61841;DHT22;47773;53.174;6.614;2022-07-22T07:55:07;18.10;99.90
61841;DHT22;47773;53.174;6.614;2022-07-22T07:57:33;18.10;99.90
61841;DHT22;47773;53.174;6.614;2022-07-22T07:59:59;18.10;99.90
61841;DHT22;47773;53.174;6.614;2022-07-22T08:02:24;18.20;99.90
61841;DHT22;47773;53.174;6.614;2022-07-22T08:04:50;18.20;99.90
61841;DHT22;47773;53.174;6.614;2022-07-22T08:07:16;18.20;99.90
61841;DHT22;47773;53.174;6.614;2022-07-22T08:09:41;18.30;99.90
61841;DHT22;47773;53.174;6.614;2022-07-22T08:12:07;18.30;99.90
61841;DHT22;47773;53.174;6.614;2022-07-22T08:14:33;18.20;99.90
61841;DHT22;47773;53.174;6.614;2022-07-22T08:16:59;18.20;99.90
61841;DHT22;47773;53.174;6.614;2022-07-22T08:19:24;18.10;99.90
61841;DHT22;47773;53.174;6.614;2022-07-22T08:21:50;18.10;99.90
61841;DHT22;47773;53.174;6.614;2022-07-22T08:24:16;18.10;99.90
61841;DHT22;47773;53.174;6.614;2022-07-22T08:26:41;18.00;99.90
61841;DHT22;47773;53.174;6.614;2022-07-22T08:29:07;18.00;99.90
61841;DHT22;47773;53.174;6.614;2022-07-22T08:31:36;18.00;99.90
61841;DHT22;47773;53.174;6.614;2022-07-22T08:34:03;18.10;99.90
61841;DHT22;47773;53.174;6.614;2022-07-22T08:36:29;18.10;99.90
61841;DHT22;47773;53.174;6.614;2022-07-22T08:38:55;18.10;99.90
61841;DHT22;47773;53.174;6.614;2022-07-22T08:41:22;18.10;99.90
61841;DHT22;47773;53.174;6.614;2022-07-22T08:43:48;18.20;99.90
61841;DHT22;47773;53.174;6.614;2022-07-22T08:46:14;18.10;99.90
61841;DHT22;47773;53.174;6.614;2022-07-22T08:48:40;18.10;99.90
61841;DHT22;47773;53.174;6.614;2022-07-22T08:51:06;18.10;99.90
61841;DHT22;47773;53.174;6.614;2022-07-22T08:53:32;18.20;99.90
61841;DHT22;47773;53.174;6.614;2022-07-22T08:55:58;18.20;99.90
61841;DHT22;47773;53.174;6.614;2022-07-22T08:58:25;18.20;99.90
61841;DHT22;47773;53.174;6.614;2022-07-22T09:03:51;18.40;99.90
61841;DHT22;47773;53.174;6.614;2022-07-22T09:06:19;18.50;99.90
61841;DHT22;47773;53.174;6.614;2022-07-22T09:11:25;18.50;99.90
61841;DHT22;47773;53.174;6.614;2022-07-22T09:13:52;18.40;99.90
61841;DHT22;47773;53.174;6.614;2022-07-22T09:16:47;18.40;99.90
61841;DHT22;47773;53.174;6.614;2022-07-22T09:19:14;18.40;99.90
61841;DHT22;47773;53.174;6.614;2022-07-22T09:21:42;18.40;99.90
61841;DHT22;47773;53.174;6.614;2022-07-22T09:24:09;18.40;99.90
61841;DHT22;47773;53.174;6.614;2022-07-22T09:26:54;18.40;99.90
61841;DHT22;47773;53.174;6.614;2022-07-22T09:29:20;18.50;99.90
61841;DHT22;47773;53.174;6.614;2022-07-22T09:31:50;18.50;99.90
61841;DHT22;47773;53.174;6.614;2022-07-22T09:34:31;18.50;99.90
61841;DHT22;47773;53.174;6.614;2022-07-22T09:36:59;18.60;99.90
61841;DHT22;47773;53.174;6.614;2022-07-22T09:39:29;18.60;99.90
61841;DHT22;47773;53.174;6.614;2022-07-22T09:41:59;18.70;99.90
61841;DHT22;47773;53.174;6.614;2022-07-22T09:44:25;18.60;99.90
61841;DHT22;47773;53.174;6.614;2022-07-22T09:46:51;18.60;99.90
61841;DHT22;47773;53.174;6.614;2022-07-22T09:49:37;18.70;99.90
61841;DHT22;47773;53.174;6.614;2022-07-22T09:52:05;18.80;99.90
61841;DHT22;47773;53.174;6.614;2022-07-22T09:54:31;18.80;99.90
61841;DHT22;47773;53.174;6.614;2022-07-22T09:56:58;18.80;99.90
61841;DHT22;47773;53.174;6.614;2022-07-22T09:59:24;18.80;99.90
61841;DHT22;47773;53.174;6.614;2022-07-22T10:01:54;18.90;99.90
61841;DHT22;47773;53.174;6.614;2022-07-22T10:04:21;18.90;99.90
61841;DHT22;47773;53.174;6.614;2022-07-22T10:06:50;18.90;99.90
61841;DHT22;47773;53.174;6.614;2022-07-22T10:09:17;18.90;99.90
61841;DHT22;47773;53.174;6.614;2022-07-22T10:11:43;18.90;99.90
61841;DHT22;47773;53.174;6.614;2022-07-22T10:14:17;18.90;99.90
61841;DHT22;47773;53.174;6.614;2022-07-22T10:16:43;19.00;99.90
61841;DHT22;47773;53.174;6.614;2022-07-22T10:19:10;19.10;99.90
61841;DHT22;47773;53.174;6.614;2022-07-22T10:21:35;19.20;99.90
61841;DHT22;47773;53.174;6.614;2022-07-22T10:24:16;19.30;99.90
61841;DHT22;47773;53.174;6.614;2022-07-22T10:26:53;19.40;99.90
61841;DHT22;47773;53.174;6.614;2022-07-22T10:29:28;19.40;99.90
61841;DHT22;47773;53.174;6.614;2022-07-22T10:34:42;19.60;99.90
61841;DHT22;47773;53.174;6.614;2022-07-22T10:45:33;20.00;99.90
61841;DHT22;47773;53.174;6.614;2022-07-22T10:48:01;20.10;99.90
61841;DHT22;47773;53.174;6.614;2022-07-22T10:55:34;20.50;99.90
61841;DHT22;47773;53.174;6.614;2022-07-22T10:58:06;20.60;99.90
61841;DHT22;47773;53.174;6.614;2022-07-22T11:00:46;20.60;99.90
61841;DHT22;47773;53.174;6.614;2022-07-22T11:03:12;20.50;99.90
61841;DHT22;47773;53.174;6.614;2022-07-22T11:05:38;20.40;99.90
61841;DHT22;47773;53.174;6.614;2022-07-22T11:08:08;20.30;99.90
61841;DHT22;47773;53.174;6.614;2022-07-22T11:10:34;20.20;99.90
61841;DHT22;47773;53.174;6.614;2022-07-22T11:13:00;20.10;99.90
61841;DHT22;47773;53.174;6.614;2022-07-22T11:15:26;19.90;99.90
61841;DHT22;47773;53.174;6.614;2022-07-22T11:17:56;19.90;99.90
61841;DHT22;47773;53.174;6.614;2022-07-22T11:20:22;19.80;99.90
61841;DHT22;47773;53.174;6.614;2022-07-22T11:22:47;19.80;99.90
61841;DHT22;47773;53.174;6.614;2022-07-22T11:25:14;19.70;99.90
61841;DHT22;47773;53.174;6.614;2022-07-22T11:27:50;19.70;99.90
61841;DHT22;47773;53.174;6.614;2022-07-22T11:30:16;19.70;99.90
61841;DHT22;47773;53.174;6.614;2022-07-22T11:32:42;19.60;99.90
61841;DHT22;47773;53.174;6.614;2022-07-22T11:35:11;19.60;99.90
61841;DHT22;47773;53.174;6.614;2022-07-22T11:37:37;19.50;99.90
61841;DHT22;47773;53.174;6.614;2022-07-22T11:40:07;19.50;99.90
61841;DHT22;47773;53.174;6.614;2022-07-22T11:42:33;19.50;99.90
61841;DHT22;47773;53.174;6.614;2022-07-22T11:44:59;19.50;99.90
61841;DHT22;47773;53.174;6.614;2022-07-22T11:47:25;19.50;99.90
61841;DHT22;47773;53.174;6.614;2022-07-22T11:49:51;19.40;99.90
61841;DHT22;47773;53.174;6.614;2022-07-22T11:52:17;19.50;99.90
61841;DHT22;47773;53.174;6.614;2022-07-22T11:54:44;19.50;99.90
61841;DHT22;47773;53.174;6.614;2022-07-22T11:57:11;19.50;99.90
61841;DHT22;47773;53.174;6.614;2022-07-22T11:59:37;19.60;99.90
61841;DHT22;47773;53.174;6.614;2022-07-22T12:02:04;19.50;99.90
61841;DHT22;47773;53.174;6.614;2022-07-22T12:04:32;19.60;99.90
61841;DHT22;47773;53.174;6.614;2022-07-22T12:06:59;19.70;99.90
61841;DHT22;47773;53.174;6.614;2022-07-22T12:09:30;19.70;99.90
61841;DHT22;47773;53.174;6.614;2022-07-22T12:11:57;19.70;99.90
61841;DHT22;47773;53.174;6.614;2022-07-22T12:14:31;19.80;99.90
61841;DHT22;47773;53.174;6.614;2022-07-22T12:17:05;19.90;99.90
61841;DHT22;47773;53.174;6.614;2022-07-22T12:19:32;19.90;99.90
61841;DHT22;47773;53.174;6.614;2022-07-22T12:22:18;20.00;99.90
61841;DHT22;47773;53.174;6.614;2022-07-22T12:24:46;20.00;99.90
61841;DHT22;47773;53.174;6.614;2022-07-22T12:27:22;20.10;99.90
61841;DHT22;47773;53.174;6.614;2022-07-22T12:29:49;20.20;99.90
61841;DHT22;47773;53.174;6.614;2022-07-22T12:32:28;20.20;99.90
61841;DHT22;47773;53.174;6.614;2022-07-22T12:37:27;20.30;99.90
61841;DHT22;47773;53.174;6.614;2022-07-22T12:42:23;20.50;99.90
61841;DHT22;47773;53.174;6.614;2022-07-22T12:45:06;20.50;99.90
61841;DHT22;47773;53.174;6.614;2022-07-22T12:47:54;20.40;99.90
61841;DHT22;47773;53.174;6.614;2022-07-22T12:50:29;20.50;99.90
61841;DHT22;47773;53.174;6.614;2022-07-22T12:53:00;20.50;99.90
61841;DHT22;47773;53.174;6.614;2022-07-22T12:55:29;20.30;99.90
61841;DHT22;47773;53.174;6.614;2022-07-22T12:57:54;20.30;99.90
61841;DHT22;47773;53.174;6.614;2022-07-22T13:00:23;20.30;99.90
61841;DHT22;47773;53.174;6.614;2022-07-22T13:02:49;20.30;99.90
61841;DHT22;47773;53.174;6.614;2022-07-22T13:05:15;20.30;99.90
61841;DHT22;47773;53.174;6.614;2022-07-22T13:07:42;20.30;99.90
61841;DHT22;47773;53.174;6.614;2022-07-22T13:10:08;20.30;99.90
61841;DHT22;47773;53.174;6.614;2022-07-22T13:12:34;20.30;99.90
61841;DHT22;47773;53.174;6.614;2022-07-22T13:15:00;20.20;99.90
61841;DHT22;47773;53.174;6.614;2022-07-22T13:17:25;20.20;99.90
61841;DHT22;47773;53.174;6.614;2022-07-22T13:19:51;20.30;99.90
61841;DHT22;47773;53.174;6.614;2022-07-22T13:22:17;20.30;99.90
61841;DHT22;47773;53.174;6.614;2022-07-22T13:24:42;20.50;99.90
61841;DHT22;47773;53.174;6.614;2022-07-22T13:27:08;20.60;99.90
61841;DHT22;47773;53.174;6.614;2022-07-22T13:29:33;20.80;99.90
61841;DHT22;47773;53.174;6.614;2022-07-22T13:31:59;20.90;99.90
61841;DHT22;47773;53.174;6.614;2022-07-22T13:34:25;20.90;99.60
61841;DHT22;47773;53.174;6.614;2022-07-22T13:36:50;21.00;99.70
61841;DHT22;47773;53.174;6.614;2022-07-22T13:39:16;21.00;99.20
61841;DHT22;47773;53.174;6.614;2022-07-22T13:41:42;21.00;98.10
61841;DHT22;47773;53.174;6.614;2022-07-22T13:44:07;21.10;97.10
61841;DHT22;47773;53.174;6.614;2022-07-22T13:46:36;21.10;97.60
61841;DHT22;47773;53.174;6.614;2022-07-22T13:49:03;21.10;96.90
61841;DHT22;47773;53.174;6.614;2022-07-22T13:51:29;21.10;96.80
61841;DHT22;47773;53.174;6.614;2022-07-22T13:53:54;21.00;96.90
61841;DHT22;47773;53.174;6.614;2022-07-22T13:56:20;21.10;97.80
61841;DHT22;47773;53.174;6.614;2022-07-22T13:58:45;21.10;99.00
61841;DHT22;47773;53.174;6.614;2022-07-22T14:01:11;21.00;99.90
61841;DHT22;47773;53.174;6.614;2022-07-22T14:03:38;21.00;99.90
61841;DHT22;47773;53.174;6.614;2022-07-22T14:06:04;20.90;99.90
61841;DHT22;47773;53.174;6.614;2022-07-22T14:08:30;20.80;99.90
61841;DHT22;47773;53.174;6.614;2022-07-22T14:10:56;20.70;99.90
61841;DHT22;47773;53.174;6.614;2022-07-22T14:13:22;20.70;99.90
61841;DHT22;47773;53.174;6.614;2022-07-22T14:15:47;20.60;99.90
61841;DHT22;47773;53.174;6.614;2022-07-22T14:18:13;20.50;99.90
61841;DHT22;47773;53.174;6.614;2022-07-22T14:20:39;20.40;99.90
61841;DHT22;47773;53.174;6.614;2022-07-22T14:23:06;20.30;99.90
61841;DHT22;47773;53.174;6.614;2022-07-22T14:25:35;20.20;99.90
61841;DHT22;47773;53.174;6.614;2022-07-22T14:28:01;20.20;99.90
61841;DHT22;47773;53.174;6.614;2022-07-22T14:30:27;20.20;99.90
61841;DHT22;47773;53.174;6.614;2022-07-22T14:32:54;20.20;99.90
61841;DHT22;47773;53.174;6.614;2022-07-22T14:35:19;20.20;99.90
61841;DHT22;47773;53.174;6.614;2022-07-22T14:37:45;20.20;99.90
61841;DHT22;47773;53.174;6.614;2022-07-22T14:40:11;20.10;99.90
61841;DHT22;47773;53.174;6.614;2022-07-22T14:42:37;20.10;99.90
61841;DHT22;47773;53.174;6.614;2022-07-22T14:45:03;20.10;99.90
61841;DHT22;47773;53.174;6.614;2022-07-22T14:47:29;20.10;99.90
61841;DHT22;47773;53.174;6.614;2022-07-22T14:49:55;20.20;99.90
61841;DHT22;47773;53.174;6.614;2022-07-22T14:52:21;20.20;99.90
61841;DHT22;47773;53.174;6.614;2022-07-22T14:54:46;20.30;99.90
61841;DHT22;47773;53.174;6.614;2022-07-22T14:57:12;20.30;99.90
61841;DHT22;47773;53.174;6.614;2022-07-22T14:59:38;20.30;99.90
61841;DHT22;47773;53.174;6.614;2022-07-22T15:02:03;20.20;99.90
61841;DHT22;47773;53.174;6.614;2022-07-22T15:04:29;20.30;99.90
61841;DHT22;47773;53.174;6.614;2022-07-22T15:06:55;20.20;99.90
61841;DHT22;47773;53.174;6.614;2022-07-22T15:09:20;20.20;99.90
61841;DHT22;47773;53.174;6.614;2022-07-22T15:11:46;20.20;99.90
61841;DHT22;47773;53.174;6.614;2022-07-22T15:14:12;20.20;99.90
61841;DHT22;47773;53.174;6.614;2022-07-22T15:16:38;20.20;99.90
61841;DHT22;47773;53.174;6.614;2022-07-22T15:19:04;20.20;99.90
61841;DHT22;47773;53.174;6.614;2022-07-22T15:21:29;20.20;99.90
61841;DHT22;47773;53.174;6.614;2022-07-22T15:23:57;20.10;99.90
61841;DHT22;47773;53.174;6.614;2022-07-22T15:26:23;20.10;99.90
61841;DHT22;47773;53.174;6.614;2022-07-22T15:28:49;20.00;99.90
61841;DHT22;47773;53.174;6.614;2022-07-22T15:31:16;20.00;99.90
61841;DHT22;47773;53.174;6.614;2022-07-22T15:33:43;20.00;99.90
61841;DHT22;47773;53.174;6.614;2022-07-22T15:36:09;20.10;99.90
61841;DHT22;47773;53.174;6.614;2022-07-22T15:38:35;20.10;99.90
61841;DHT22;47773;53.174;6.614;2022-07-22T15:41:02;20.10;99.90
61841;DHT22;47773;53.174;6.614;2022-07-22T15:43:28;20.00;99.90
61841;DHT22;47773;53.174;6.614;2022-07-22T15:45:54;20.00;99.90
61841;DHT22;47773;53.174;6.614;2022-07-22T15:48:19;20.00;99.90
61841;DHT22;47773;53.174;6.614;2022-07-22T15:50:45;20.00;99.90
61841;DHT22;47773;53.174;6.614;2022-07-22T15:53:11;19.90;99.90
61841;DHT22;47773;53.174;6.614;2022-07-22T15:55:36;19.90;99.90
61841;DHT22;47773;53.174;6.614;2022-07-22T15:58:04;19.80;99.90
61841;DHT22;47773;53.174;6.614;2022-07-22T16:00:48;19.80;99.90